createdAt,value
2023-05-22T00:01:43.795Z,48.48
2023-05-22T00:04:15.977Z,48.42
2023-05-22T00:06:45.773Z,48.72
2023-05-22T00:09:12.662Z,48.55
2023-05-22T00:11:39.762Z,48.39
2023-05-22T00:14:06.695Z,48.31
2023-05-22T00:16:36.688Z,48.19
2023-05-22T00:19:04.122Z,48.40
2023-05-22T00:21:35.108Z,48.27
2023-05-22T00:24:04.902Z,48.14
2023-05-22T00:26:32.127Z,48.38
2023-05-22T00:29:02.036Z,48.13
2023-05-22T00:31:29.020Z,48.33
2023-05-22T00:33:56.228Z,48.09
2023-05-22T00:36:23.806Z,48.34
2023-05-22T00:38:51.242Z,48.53
2023-05-22T00:41:18.096Z,48.44
2023-05-22T00:43:46.455Z,48.18
2023-05-22T00:46:14.785Z,48.35
2023-05-22T00:48:41.631Z,48.06
2023-05-22T00:51:09.214Z,48.52
2023-05-22T00:53:37.313Z,48.42
2023-05-22T00:56:07.393Z,48.43
2023-05-22T00:58:36.033Z,48.12
2023-05-22T01:01:02.951Z,48.39
2023-05-22T01:03:32.935Z,48.25
2023-05-22T01:05:59.884Z,48.53
2023-05-22T01:08:26.741Z,48.32
2023-05-22T01:10:58.772Z,48.52
2023-05-22T01:13:32.290Z,48.43
2023-05-22T01:16:11.657Z,48.76
2023-05-22T01:18:58.389Z,48.73
2023-05-22T01:21:43.554Z,48.47
2023-05-22T01:24:45.740Z,48.77
2023-05-22T01:27:26.186Z,48.39
2023-05-22T01:29:59.272Z,48.41
2023-05-22T01:32:30.224Z,48.92
2023-05-22T01:34:59.958Z,48.86
2023-05-22T01:37:27.835Z,49.09
2023-05-22T01:39:57.714Z,48.90
2023-05-22T01:42:24.890Z,49.11
2023-05-22T01:44:51.780Z,49.09
2023-05-22T01:47:18.750Z,48.99
2023-05-22T01:49:47.465Z,48.99
2023-05-22T01:52:37.649Z,49.04
2023-05-22T01:55:10.463Z,49.36
2023-05-22T01:57:47.434Z,49.46
2023-05-22T02:00:18.692Z,49.72
2023-05-22T02:02:53.856Z,49.73
2023-05-22T02:05:41.582Z,49.82
2023-05-22T02:08:13.770Z,49.67
2023-05-22T02:10:42.689Z,49.90
2023-05-22T02:13:10.673Z,50.06
2023-05-22T02:15:37.950Z,50.46
2023-05-22T02:18:10.832Z,50.81
2023-05-22T02:20:37.983Z,50.65
2023-05-22T02:23:05.552Z,50.63
2023-05-22T02:25:32.482Z,50.60
2023-05-22T02:28:00.229Z,50.80
2023-05-22T02:30:27.103Z,50.71
2023-05-22T02:32:54.942Z,50.86
2023-05-22T02:35:23.848Z,51.04
2023-05-22T02:37:52.319Z,51.22
2023-05-22T02:40:20.945Z,51.31
2023-05-22T02:42:47.844Z,51.52
2023-05-22T02:45:14.943Z,51.52
2023-05-22T02:47:42.249Z,51.79
2023-05-22T02:50:09.631Z,51.65
2023-05-22T02:52:37.380Z,51.87
2023-05-22T02:55:04.836Z,51.94
2023-05-22T02:57:33.089Z,51.85
2023-05-22T03:00:00.103Z,51.95
2023-05-22T03:02:30.058Z,51.84
2023-05-22T03:04:59.256Z,51.96
2023-05-22T03:07:29.950Z,51.66
2023-05-22T03:09:57.205Z,51.94
2023-05-22T03:12:25.009Z,51.71
2023-05-22T03:14:54.720Z,51.98
2023-05-22T03:17:23.177Z,51.89
2023-05-22T03:19:50.119Z,52.24
2023-05-22T03:22:21.457Z,52.14
2023-05-22T03:24:48.485Z,52.37
2023-05-22T03:27:17.417Z,52.61
2023-05-22T03:29:49.117Z,52.78
2023-05-22T03:32:18.392Z,52.75
2023-05-22T03:34:49.299Z,52.93
2023-05-22T03:37:16.298Z,53.20
2023-05-22T03:39:47.352Z,53.48
2023-05-22T03:42:23.000Z,53.54
2023-05-22T03:44:50.578Z,53.52
2023-05-22T03:47:21.404Z,54.01
2023-05-22T03:49:48.652Z,53.75
2023-05-22T03:52:16.909Z,53.81
2023-05-22T03:54:43.846Z,53.80
2023-05-22T03:57:10.838Z,53.66
2023-05-22T03:59:38.080Z,53.66
2023-05-22T04:02:05.745Z,54.27
2023-05-22T04:04:34.353Z,54.58
2023-05-22T04:07:05.730Z,54.44
2023-05-22T04:09:36.243Z,54.47
2023-05-22T04:12:03.962Z,54.83
2023-05-22T04:14:31.355Z,55.43
2023-05-22T04:16:59.220Z,55.46
2023-05-22T04:19:30.988Z,55.74
2023-05-22T04:22:01.055Z,55.63
2023-05-22T04:24:28.050Z,55.50
2023-05-22T04:27:00.513Z,55.79
2023-05-22T04:29:28.833Z,55.67
2023-05-22T04:31:58.473Z,56.00
2023-05-22T04:34:26.280Z,55.79
2023-05-22T04:36:56.567Z,55.47
2023-05-22T04:39:26.493Z,55.49
2023-05-22T04:41:53.275Z,55.48
2023-05-22T04:44:23.376Z,55.64
2023-05-22T04:46:52.211Z,55.07
2023-05-22T04:49:19.328Z,55.21
2023-05-22T04:51:49.048Z,55.20
2023-05-22T04:54:37.849Z,55.20
2023-05-22T04:57:25.878Z,54.92
2023-05-22T05:00:15.898Z,54.80
2023-05-22T05:02:43.538Z,54.89
2023-05-22T05:05:11.275Z,54.52
2023-05-22T05:07:39.674Z,54.47
2023-05-22T05:10:10.165Z,54.39
2023-05-22T05:12:37.512Z,54.86
2023-05-22T05:15:04.908Z,54.78
2023-05-22T05:17:32.127Z,55.09
2023-05-22T05:19:59.150Z,54.48
2023-05-22T05:22:26.321Z,54.53
2023-05-22T05:24:53.416Z,54.82
2023-05-22T05:27:20.487Z,54.62
2023-05-22T05:29:50.745Z,54.57
2023-05-22T05:32:32.442Z,54.29
2023-05-22T05:35:12.878Z,54.71
2023-05-22T05:37:44.884Z,54.36
2023-05-22T05:40:16.450Z,54.34
2023-05-22T05:42:48.706Z,54.00
2023-05-22T05:45:20.801Z,54.08
2023-05-22T05:47:47.817Z,53.90
2023-05-22T05:50:16.025Z,54.12
2023-05-22T05:52:43.353Z,53.98
2023-05-22T05:55:14.674Z,54.15
2023-05-22T05:57:41.769Z,53.82
2023-05-22T06:00:13.781Z,54.15
2023-05-22T06:02:44.028Z,53.94
2023-05-22T06:05:24.824Z,54.28
2023-05-22T06:07:59.531Z,54.36
2023-05-22T06:10:26.707Z,53.94
2023-05-22T06:13:01.159Z,54.35
2023-05-22T06:15:30.352Z,54.16
2023-05-22T06:18:00.346Z,54.12
2023-05-22T06:20:27.985Z,54.07
2023-05-22T06:22:54.864Z,53.88
2023-05-22T06:25:26.219Z,54.12
2023-05-22T06:27:57.802Z,54.12
2023-05-22T06:30:38.741Z,54.05
2023-05-22T06:33:09.358Z,54.49
2023-05-22T06:35:41.101Z,54.01
2023-05-22T06:38:08.256Z,54.15
2023-05-22T06:40:35.409Z,54.01
2023-05-22T06:43:22.481Z,53.82
2023-05-22T06:45:56.469Z,53.85
2023-05-22T06:48:25.074Z,53.64
2023-05-22T06:51:14.033Z,54.01
2023-05-22T06:53:42.045Z,53.76
2023-05-22T06:56:16.850Z,53.90
2023-05-22T06:58:54.130Z,53.89
2023-05-22T07:01:24.360Z,53.62
2023-05-22T07:04:09.327Z,54.01
2023-05-22T07:06:42.001Z,53.99
2023-05-22T07:09:11.306Z,54.14
2023-05-22T07:11:38.518Z,54.19
2023-05-22T07:14:05.497Z,54.05
2023-05-22T07:16:32.688Z,54.01
2023-05-22T07:19:03.654Z,53.93
2023-05-22T07:21:32.159Z,54.09
2023-05-22T07:23:59.083Z,54.00
2023-05-22T07:26:30.176Z,53.61
2023-05-22T07:29:04.807Z,53.56
2023-05-22T07:31:34.840Z,53.72
2023-05-22T07:34:02.778Z,54.01
2023-05-22T07:36:32.085Z,54.20
2023-05-22T07:39:01.961Z,54.13
2023-05-22T07:41:31.846Z,54.17
2023-05-22T07:43:59.113Z,54.26
2023-05-22T07:46:31.521Z,53.97
2023-05-22T07:49:07.136Z,54.10
2023-05-22T07:51:35.093Z,53.76
2023-05-22T07:54:02.079Z,53.39
2023-05-22T07:56:29.000Z,53.13
2023-05-22T07:58:58.496Z,52.79
2023-05-22T08:01:28.416Z,52.68
2023-05-22T08:03:55.719Z,52.58
2023-05-22T08:06:25.296Z,52.70
2023-05-22T08:08:55.192Z,52.70
2023-05-22T08:11:22.147Z,52.97
2023-05-22T08:13:49.117Z,52.74
2023-05-22T08:16:16.090Z,53.10
2023-05-22T08:18:45.705Z,52.60
2023-05-22T08:21:12.728Z,51.90
2023-05-22T08:23:43.800Z,51.74
2023-05-22T08:26:10.647Z,51.23
2023-05-22T08:28:37.734Z,51.37
2023-05-22T08:31:04.709Z,51.31
2023-05-22T08:33:34.658Z,50.87
2023-05-22T08:36:01.487Z,50.60
2023-05-22T08:38:28.481Z,49.89
2023-05-22T08:40:56.068Z,49.68
2023-05-22T08:43:23.768Z,49.60
2023-05-22T08:46:00.097Z,49.37
2023-05-22T08:48:32.881Z,49.15
2023-05-22T08:51:04.523Z,49.24
2023-05-22T08:53:34.694Z,49.01
2023-05-22T08:56:02.732Z,48.54
2023-05-22T08:58:30.117Z,48.50
2023-05-22T09:00:57.710Z,47.74
2023-05-22T09:03:29.059Z,47.51
2023-05-22T09:05:56.162Z,47.26
2023-05-22T09:08:26.299Z,47.52
2023-05-22T09:10:55.358Z,46.99
2023-05-22T09:13:30.481Z,46.69
2023-05-22T09:16:09.952Z,46.66
2023-05-22T09:18:41.323Z,46.16
2023-05-22T09:21:25.788Z,46.43
2023-05-22T09:24:00.297Z,46.46
2023-05-22T09:26:33.847Z,46.60
2023-05-22T09:29:01.337Z,45.85
2023-05-22T09:31:51.734Z,45.90
2023-05-22T09:34:18.671Z,45.62
2023-05-22T09:36:45.584Z,45.80
2023-05-22T09:39:17.741Z,45.24
2023-05-22T09:41:46.815Z,44.78
2023-05-22T09:44:17.526Z,44.92
2023-05-22T09:46:46.033Z,44.97
2023-05-22T09:49:16.695Z,44.57
2023-05-22T09:51:48.410Z,45.06
2023-05-22T09:54:16.527Z,44.74
2023-05-22T09:56:44.169Z,44.69
2023-05-22T09:59:12.850Z,44.99
2023-05-22T10:01:42.941Z,44.70
2023-05-22T10:04:11.249Z,44.48
2023-05-22T10:06:39.512Z,43.84
2023-05-22T10:09:09.395Z,43.95
2023-05-22T10:11:36.672Z,43.92
2023-05-22T10:14:05.268Z,43.67
2023-05-22T10:16:34.431Z,43.61
2023-05-22T10:19:01.629Z,43.42
2023-05-22T10:21:32.749Z,43.51
2023-05-22T10:24:00.384Z,43.66
2023-05-22T10:26:27.566Z,43.38
2023-05-22T10:29:11.758Z,43.86
2023-05-22T10:31:51.945Z,43.27
2023-05-22T10:34:36.097Z,43.06
2023-05-22T10:37:22.706Z,43.09
2023-05-22T10:39:55.190Z,42.96
2023-05-22T10:42:26.038Z,42.55
2023-05-22T10:44:53.517Z,42.04
2023-05-22T10:47:20.472Z,41.78
2023-05-22T10:49:47.961Z,41.51
2023-05-22T10:52:15.230Z,41.35
2023-05-22T10:54:46.412Z,41.19
2023-05-22T10:57:18.417Z,40.56
2023-05-22T10:59:48.047Z,41.10
2023-05-22T11:02:22.945Z,40.36
2023-05-22T11:04:50.043Z,40.24
2023-05-22T11:07:16.918Z,40.43
2023-05-22T11:09:48.915Z,40.09
2023-05-22T11:40:53.528Z,38.04
2023-05-22T11:43:31.764Z,37.47
2023-05-22T11:46:09.588Z,37.52
2023-05-22T11:48:36.919Z,37.53
2023-05-22T11:51:07.158Z,37.39
2023-05-22T11:53:37.907Z,37.23
2023-05-22T11:56:06.066Z,36.75
2023-05-22T11:58:36.306Z,36.75
2023-05-22T12:01:06.441Z,36.49
2023-05-22T12:03:44.209Z,36.47
2023-05-22T12:06:16.427Z,36.38
2023-05-22T12:08:45.242Z,35.81
2023-05-22T12:11:14.255Z,36.07
2023-05-22T12:13:43.700Z,35.70
2023-05-22T12:16:26.105Z,34.99
2023-05-22T12:18:59.443Z,35.09
2023-05-22T12:21:27.184Z,34.41
2023-05-22T12:23:55.305Z,33.87
2023-05-22T12:26:24.608Z,33.62
2023-05-22T12:28:55.688Z,33.41
2023-05-22T12:31:27.791Z,33.10
2023-05-22T12:33:58.277Z,32.88
2023-05-22T12:36:41.855Z,33.04
2023-05-22T12:39:16.041Z,33.11
2023-05-22T12:41:44.061Z,32.83
2023-05-22T12:44:11.237Z,33.07
2023-05-22T12:46:38.687Z,32.83
2023-05-22T12:49:05.628Z,32.43
2023-05-22T12:51:33.009Z,33.13
2023-05-22T12:54:00.331Z,32.51
2023-05-22T12:56:27.456Z,32.43
2023-05-22T12:58:54.648Z,31.82
2023-05-22T13:01:24.456Z,31.96
2023-05-22T13:03:54.455Z,31.54
2023-05-22T13:06:22.658Z,31.05
2023-05-22T13:08:49.607Z,31.38
2023-05-22T13:11:17.250Z,30.82
2023-05-22T13:13:44.209Z,30.33
2023-05-22T13:16:11.664Z,29.95
2023-05-22T13:18:40.796Z,29.37
2023-05-22T13:21:07.756Z,29.78
2023-05-22T13:23:34.685Z,29.61
2023-05-22T13:26:02.408Z,29.40
2023-05-22T13:28:32.283Z,29.95
2023-05-22T13:30:59.195Z,29.69
2023-05-22T13:33:26.304Z,29.08
2023-05-22T13:35:53.218Z,28.34
2023-05-22T13:38:22.813Z,28.00
2023-05-22T13:40:50.123Z,27.35
2023-05-22T13:43:20.476Z,27.37
2023-05-22T13:45:48.470Z,27.02
2023-05-22T13:48:15.348Z,27.34
2023-05-22T13:50:42.339Z,26.60
2023-05-22T13:53:09.455Z,26.77
2023-05-22T13:55:36.386Z,26.93
2023-05-22T13:58:04.347Z,25.74
2023-05-22T14:00:31.417Z,25.71
2023-05-22T14:02:58.419Z,25.78
2023-05-22T14:05:27.576Z,26.26
2023-05-22T14:07:56.238Z,26.25
2023-05-22T14:10:23.270Z,26.02
2023-05-22T14:12:50.460Z,25.59
2023-05-22T14:15:18.005Z,25.54
2023-05-22T14:17:46.972Z,25.14
2023-05-22T14:20:14.125Z,25.41
2023-05-22T14:22:56.016Z,25.67
2023-05-22T14:25:25.410Z,25.96
2023-05-22T14:27:52.368Z,26.08
2023-05-22T14:30:19.637Z,26.13
2023-05-22T14:32:47.292Z,26.20
2023-05-22T14:35:16.863Z,27.21
2023-05-22T14:37:46.651Z,27.00
2023-05-22T14:40:14.428Z,26.94
2023-05-22T14:42:41.584Z,27.05
2023-05-22T14:45:09.313Z,26.89
2023-05-22T14:47:36.351Z,26.13
2023-05-22T14:50:17.998Z,26.08
2023-05-22T14:52:51.286Z,26.27
2023-05-22T14:55:18.559Z,25.98
2023-05-22T14:57:46.795Z,26.16
2023-05-22T15:03:13.816Z,25.28
2023-05-22T15:05:42.188Z,25.24
2023-05-22T15:08:09.424Z,25.55
2023-05-22T15:10:59.837Z,25.43
2023-05-22T15:19:56.365Z,26.62
2023-05-22T15:22:23.205Z,27.04
2023-05-22T15:25:06.529Z,27.74
2023-05-22T15:27:35.403Z,28.13
2023-05-22T15:30:07.157Z,29.15
2023-05-22T15:32:37.085Z,28.86
2023-05-22T15:35:07.993Z,29.57
2023-05-22T15:37:36.767Z,29.64
2023-05-22T15:40:04.725Z,29.60
2023-05-22T15:42:32.477Z,29.12
2023-05-22T15:45:01.887Z,30.04
2023-05-22T15:47:29.661Z,29.59
2023-05-22T15:49:56.669Z,29.02
2023-05-22T15:52:24.854Z,29.23
2023-05-22T15:54:52.096Z,29.22
2023-05-22T15:57:20.250Z,28.69
2023-05-22T15:59:51.135Z,29.35
2023-05-22T16:02:21.745Z,29.26
2023-05-22T16:04:49.566Z,29.53
2023-05-22T16:07:20.298Z,29.59
2023-05-22T16:09:47.295Z,29.80
2023-05-22T16:12:14.704Z,29.49
2023-05-22T16:14:41.955Z,29.59
2023-05-22T16:17:12.449Z,29.50
2023-05-22T16:19:39.473Z,29.43
2023-05-22T16:22:06.532Z,29.18
2023-05-22T16:24:35.661Z,29.43
2023-05-22T16:27:02.932Z,29.40
2023-05-22T16:29:33.263Z,29.03
2023-05-22T16:32:03.975Z,29.83
2023-05-22T16:34:33.964Z,29.28
2023-05-22T16:37:01.260Z,29.03
2023-05-22T16:39:28.559Z,29.57
2023-05-22T16:41:55.535Z,29.49
2023-05-22T16:44:22.348Z,30.87
2023-05-22T16:46:50.358Z,29.55
2023-05-22T16:49:20.765Z,29.66
2023-05-22T16:51:47.664Z,29.46
2023-05-22T16:54:17.619Z,29.43
2023-05-22T16:56:44.607Z,29.53
2023-05-22T16:59:11.542Z,29.31
2023-05-22T17:01:44.489Z,29.08
2023-05-22T17:04:16.008Z,29.25
2023-05-22T17:06:43.955Z,29.32
2023-05-22T17:09:11.455Z,29.47
2023-05-22T17:11:38.392Z,29.34
2023-05-22T17:14:05.455Z,29.52
2023-05-22T17:16:33.632Z,29.73
2023-05-22T17:19:02.160Z,29.79
2023-05-22T17:21:31.009Z,29.22
2023-05-22T17:23:58.113Z,29.51
2023-05-22T17:26:25.892Z,29.57
2023-05-22T17:28:54.049Z,29.83
2023-05-22T17:31:22.280Z,29.88
2023-05-22T17:33:49.124Z,30.06
2023-05-22T17:36:16.264Z,30.21
2023-05-22T17:38:43.136Z,29.95
2023-05-22T17:41:10.087Z,30.29
2023-05-22T17:43:38.395Z,30.35
2023-05-22T17:46:08.900Z,30.31
2023-05-22T17:48:35.894Z,30.33
2023-05-22T17:51:07.156Z,29.97
2023-05-22T17:53:35.181Z,30.23
2023-05-22T17:56:03.747Z,30.19
2023-05-22T17:58:32.949Z,30.54
2023-05-22T18:01:03.199Z,30.73
2023-05-22T18:03:30.584Z,30.87
2023-05-22T18:05:57.890Z,31.68
2023-05-22T18:08:24.841Z,32.03
2023-05-22T18:10:51.920Z,31.75
2023-05-22T18:13:19.835Z,32.25
2023-05-22T18:15:46.800Z,32.27
2023-05-22T18:18:18.401Z,32.78
2023-05-22T18:20:48.105Z,33.23
2023-05-22T18:23:15.176Z,33.42
2023-05-22T18:25:45.238Z,33.86
2023-05-22T18:28:12.138Z,33.82
2023-05-22T18:30:39.358Z,33.88
2023-05-22T18:33:06.515Z,34.61
2023-05-22T18:35:33.505Z,34.87
2023-05-22T18:38:00.403Z,34.85
2023-05-22T18:40:27.286Z,35.24
2023-05-22T18:42:55.301Z,35.20
2023-05-22T18:45:25.132Z,35.21
2023-05-22T18:47:52.081Z,35.68
2023-05-22T18:50:19.373Z,35.77
2023-05-22T18:53:04.276Z,35.85
2023-05-22T18:55:31.467Z,35.68
2023-05-22T18:57:58.561Z,35.65
2023-05-22T19:00:25.637Z,35.75
2023-05-22T19:02:55.876Z,36.06
2023-05-22T19:05:23.043Z,36.14
2023-05-22T19:07:50.367Z,35.96
2023-05-22T19:10:17.625Z,36.40
2023-05-22T19:12:44.788Z,36.32
2023-05-22T19:15:12.041Z,36.62
2023-05-22T19:17:39.142Z,36.47
2023-05-22T19:20:07.626Z,36.71
2023-05-22T19:22:34.601Z,36.69
2023-05-22T19:25:03.032Z,37.11
2023-05-22T19:27:30.104Z,37.16
2023-05-22T19:29:57.361Z,36.99
2023-05-22T19:32:24.403Z,37.24
2023-05-22T19:34:51.447Z,37.33
2023-05-22T19:37:18.391Z,37.32
2023-05-22T19:39:45.458Z,37.38
2023-05-22T19:42:12.728Z,37.39
2023-05-22T19:44:39.570Z,37.61
2023-05-22T19:47:06.595Z,38.00
2023-05-22T19:49:37.209Z,37.77
2023-05-22T19:52:06.078Z,38.23
2023-05-22T19:54:33.170Z,38.20
2023-05-22T19:57:00.319Z,37.74
2023-05-22T19:59:27.666Z,38.11
2023-05-22T20:01:54.925Z,38.16
2023-05-22T20:04:22.068Z,39.22
2023-05-22T20:06:49.141Z,39.03
2023-05-22T20:09:16.554Z,38.89
2023-05-22T20:11:43.544Z,38.49
2023-05-22T20:14:12.723Z,39.38
2023-05-22T20:16:39.811Z,38.82
2023-05-22T20:19:07.102Z,39.10
2023-05-22T20:21:34.075Z,38.77
2023-05-22T20:24:04.720Z,38.74
2023-05-22T20:26:31.638Z,39.09
2023-05-22T20:28:58.558Z,38.69
2023-05-22T20:31:26.179Z,38.92
2023-05-22T20:33:53.088Z,38.92
2023-05-22T20:36:20.096Z,38.71
2023-05-22T20:38:47.091Z,39.15
2023-05-22T20:41:14.131Z,39.34
2023-05-22T20:43:43.633Z,38.92
2023-05-22T20:46:10.833Z,39.27
2023-05-22T20:48:38.834Z,39.10
2023-05-22T20:51:06.188Z,39.45
2023-05-22T20:53:33.472Z,39.64
2023-05-22T20:56:00.397Z,39.65
2023-05-22T20:58:27.633Z,39.85
2023-05-22T21:00:54.637Z,39.99
2023-05-22T21:03:23.003Z,39.95
2023-05-22T21:05:51.104Z,40.42
2023-05-22T21:08:18.034Z,40.20
2023-05-22T21:10:45.099Z,40.75
2023-05-22T21:13:11.944Z,40.45
2023-05-22T21:15:38.879Z,40.53
2023-05-22T21:18:06.256Z,40.92
2023-05-22T21:20:33.182Z,40.66
2023-05-22T21:23:00.154Z,40.48
2023-05-22T21:25:28.323Z,40.91
2023-05-22T21:27:55.363Z,40.60
2023-05-22T21:30:23.326Z,40.88
2023-05-22T21:32:50.332Z,40.96
2023-05-22T21:35:17.303Z,41.17
2023-05-22T21:37:44.159Z,40.94
2023-05-22T21:40:11.522Z,41.47
2023-05-22T21:42:46.451Z,41.28
2023-05-22T21:45:14.425Z,41.23
2023-05-22T21:47:41.608Z,41.32
2023-05-22T21:50:08.879Z,41.32
2023-05-22T21:52:36.199Z,41.86
2023-05-22T21:55:03.443Z,41.83
2023-05-22T21:57:30.404Z,41.67
2023-05-22T21:59:57.431Z,42.15
2023-05-22T22:02:24.877Z,42.04
2023-05-22T22:04:52.020Z,42.07
2023-05-22T22:07:21.757Z,42.27
2023-05-22T22:09:48.807Z,42.30
2023-05-22T22:12:15.928Z,42.21
2023-05-22T22:14:42.813Z,41.96
2023-05-22T22:17:09.755Z,42.32
2023-05-22T22:19:36.744Z,42.08
2023-05-22T22:22:04.931Z,42.41
2023-05-22T22:24:31.920Z,42.55
2023-05-22T22:26:59.019Z,42.35
2023-05-22T22:29:26.377Z,42.83
2023-05-22T22:31:53.184Z,42.55
2023-05-22T22:34:20.172Z,42.83
2023-05-22T22:36:47.644Z,42.42
2023-05-22T22:39:14.711Z,42.64
2023-05-22T22:41:43.374Z,42.95
2023-05-22T22:44:10.742Z,43.03
2023-05-22T22:46:37.800Z,43.22
2023-05-22T22:49:05.018Z,42.96
2023-05-22T22:51:31.887Z,42.89
2023-05-22T22:53:58.893Z,43.46
2023-05-22T22:56:29.604Z,43.06
2023-05-22T22:58:57.429Z,43.44
2023-05-22T23:01:24.713Z,43.99
2023-05-22T23:03:52.373Z,43.50
2023-05-22T23:06:19.626Z,43.66
2023-05-22T23:08:49.250Z,43.63
2023-05-22T23:11:16.868Z,43.42
2023-05-22T23:13:43.844Z,43.48
2023-05-22T23:16:11.340Z,44.01
2023-05-22T23:18:38.569Z,44.01
2023-05-22T23:21:06.943Z,44.51
2023-05-22T23:23:33.828Z,44.63
2023-05-22T23:26:00.931Z,44.79
2023-05-22T23:28:27.868Z,44.78
2023-05-22T23:30:55.169Z,45.08
2023-05-22T23:33:22.057Z,45.08
2023-05-22T23:35:49.000Z,45.45
2023-05-22T23:38:16.196Z,45.13
2023-05-22T23:40:43.300Z,45.11
2023-05-22T23:43:10.120Z,44.89
2023-05-22T23:45:37.297Z,44.72
2023-05-22T23:48:04.564Z,44.76
2023-05-22T23:50:31.779Z,44.81
2023-05-22T23:52:58.704Z,44.39
2023-05-22T23:55:25.551Z,44.72
2023-05-22T23:57:52.410Z,44.74
